Latest Weather Observations for Cerberus

IDV60901

Issued at 12:15 pm EST Saturday 2 August 2014 (issued every 10 minutes, with the page automatically refreshed every 10 minutes)

About weather observations | Map of Melbourne area stations | Latest observations for Melbourne area | Other Formats
Station Details ID: 086361 Name: CERBERUS Lat: -38.36 Lon: 145.18 Height: 12.69 m
Data from the previous 72 hours. | See also: Recent months at Cerberus
Date/Time
EST
Tmp

°C
App
Tmp
°C
Dew
Point
°C
Rel
Hum
%
Delta-T

°C
Wind Press
QNH
hPa
Press
MSL
hPa
Rain
since
9 am
mm
Dir
 
Spd
km/h
Gust
km/h
Spd
kts
Gust
kts
02/12:00pm 9.4 6.3 3.8 68 2.4 ENE 9 13 5 7 1030.7 1030.7 0.4
02/11:30am 8.8 6.9 5.0 77 1.7 NNW 4 9 2 5 1030.8 - 0.4
02/11:00am 7.8 4.3 3.3 73 1.9 W 11 19 6 10 1030.8 1030.8 0.4
02/10:30am 9.0 6.1 2.8 65 2.6 NNE 7 13 4 7 1030.3 - 0.2
02/10:00am 9.2 6.6 4.0 70 2.3 NE 7 17 4 9 1029.7 1029.7 0.2
02/09:30am 7.5 3.1 2.8 72 2.0 ESE 15 24 8 13 1029.3 - 0.2
02/09:00am 8.2 5.4 5.1 81 1.4 N 9 13 5 7 1028.7 1028.7 7.4
02/08:30am 6.1 3.6 3.8 85 1.0 NNE 6 9 3 5 1028.3 - 7.4
02/08:00am 4.9 2.1 2.3 83 1.0 N 6 7 3 4 1027.9 1027.9 7.4
02/07:30am 5.1 2.3 2.1 81 1.2 NNW 6 9 3 5 1027.4 - 7.4
02/07:00am 5.9 3.5 2.0 76 1.6 SSW 4 6 2 3 1026.8 1026.8 7.4
02/06:30am 7.4 3.7 2.5 71 2.0 SSW 11 30 6 16 1026.3 - 7.2
02/06:00am 8.0 4.0 0.3 58 3.0 S 11 30 6 16 1025.7 1025.7 7.2
02/05:30am 8.1 4.5 3.2 71 2.1 S 11 19 6 10 1025.4 - 7.2
02/05:00am 8.9 5.0 0.9 57 3.2 SSW 11 22 6 12 1024.7 1024.7 7.2
02/04:30am 9.1 4.4 0.8 56 3.4 SSW 15 20 8 11 1024.4 - 7.2
02/04:00am 8.9 4.7 1.6 60 3.0 SSW 13 19 7 10 1024.0 1024.0 7.2
02/03:30am 8.6 4.0 1.3 60 3.0 SSW 15 22 8 12 1023.7 - 7.2
02/03:00am 8.5 4.0 2.1 64 2.6 S 15 24 8 13 1023.5 1023.5 7.2
02/02:30am 8.0 4.0 2.7 69 2.2 SSW 13 22 7 12 1023.4 - 7.2
02/02:00am 7.0 2.2 2.5 73 1.9 S 17 28 9 15 1023.2 1023.2 7.2
02/01:44am 8.8 2.0 3.0 67 2.5 SSW 28 48 15 26 1022.7 - 7.0
02/01:30am 9.7 4.2 1.6 57 3.4 SW 20 33 11 18 1022.3 - 7.0
02/01:00am 9.6 4.0 1.3 56 3.4 SSW 20 33 11 18 1022.1 1022.1 7.0
02/12:30am 9.5 4.0 1.7 58 3.2 SSW 20 37 11 20 1021.8 - 7.0
02/12:00am 9.3 3.1 1.9 60 3.1 SW 24 39 13 21 1021.3 1021.3 7.0
 
Date/Time
EST
Tmp

°C
App
Tmp
°C
Dew
Point
°C
Rel
Hum
%
Delta-T

°C
Wind Press
QNH
hPa
Press
MSL
hPa
Rain
since
9 am
mm
Dir
 
Spd
km/h
Gust
km/h
Spd
kts
Gust
kts
01/11:30pm 9.3 4.0 2.9 64 2.7 S 20 39 11 21 1020.9 - 7.0
01/11:00pm 9.5 3.7 2.4 61 3.0 SSW 22 39 12 21 1020.4 1020.4 7.0
01/10:30pm 9.4 3.2 2.3 61 3.0 SSW 24 37 13 20 1019.8 - 7.0
01/10:00pm 8.9 4.2 3.1 67 2.5 SSW 17 30 9 16 1019.3 1019.3 7.0
01/09:30pm 5.7 2.6 3.5 86 0.9 NNW 9 17 5 9 1018.9 - 7.0
01/09:00pm 5.9 3.7 3.1 82 1.2 S 4 7 2 4 1018.2 1018.2 7.0
01/08:30pm 6.7 3.1 2.8 76 1.6 W 11 19 6 10 1017.6 - 6.0
01/08:00pm 8.3 4.0 3.2 70 2.2 SW 15 22 8 12 1016.4 1016.4 5.2
01/07:30pm 7.5 0.3 3.0 73 1.9 SW 30 48 16 26 1016.0 - 5.2
01/07:28pm 7.5 0.6 2.8 72 2.0 SSW 28 48 15 26 1016.0 - 5.2
01/07:00pm 7.9 1.7 2.0 66 2.4 S 24 44 13 24 1015.1 1015.1 5.2
01/06:55pm 7.4 0.4 1.7 67 2.3 S 28 44 15 24 1015.1 - 5.2
01/06:45pm 7.6 -1.1 2.1 68 2.3 SW 37 57 20 31 1015.0 - 5.2
01/06:44pm 7.8 -1.3 1.9 66 2.4 SW 39 57 21 31 1014.9 - 5.2
01/06:30pm 8.5 1.4 3.4 70 2.2 S 30 52 16 28 1014.1 - 5.2
01/06:23pm 8.4 1.7 3.8 73 2.0 S 28 46 15 25 1013.9 - 5.2
01/06:00pm 7.9 2.0 3.9 76 1.7 S 24 37 13 20 1013.0 1013.1 5.2
01/05:30pm 7.1 0.9 4.1 81 1.3 SSW 26 44 14 24 1012.2 - 5.0
01/05:00pm 7.7 0.7 3.9 77 1.6 SSW 30 59 16 32 1010.9 1011.0 4.8
01/04:30pm 8.2 0.8 3.9 74 1.9 SW 32 56 17 30 1009.9 - 4.8
01/04:28pm 8.2 1.6 4.0 75 1.8 SW 28 50 15 27 1010.0 - 4.8
01/04:00pm 6.8 -0.4 2.9 76 1.6 WSW 30 43 16 23 1009.4 1009.5 4.8
01/03:59pm 7.1 -0.4 3.3 77 1.6 WSW 32 43 17 23 1009.5 - 4.8
01/03:30pm 7.1 4.1 4.2 82 1.3 W 9 13 5 7 1008.8 - 4.6
01/03:00pm 6.9 0.3 2.0 71 2.0 SW 26 39 14 21 1008.2 1008.3 3.2
01/02:30pm 7.8 3.3 4.4 79 1.5 WNW 17 26 9 14 1007.3 - 2.2
01/02:00pm 7.9 4.6 4.8 81 1.4 W 11 17 6 9 1006.3 1006.4 2.2
01/01:30pm 7.3 3.2 4.6 83 1.2 WNW 15 26 8 14 1005.9 - 2.0
01/01:00pm 8.7 4.1 5.4 80 1.5 WNW 19 28 10 15 1005.3 1005.3 1.2
01/12:30pm 7.2 1.9 4.9 85 1.0 WNW 22 32 12 17 1004.9 - 1.2
01/12:00pm 6.1 -1.0 3.6 84 1.1 WNW 30 50 16 27 1004.3 1004.3 1.2
01/11:30am 6.3 -0.4 3.5 82 1.2 WNW 28 67 15 36 1003.8 - 1.0
01/11:00am 8.3 0.6 2.5 67 2.4 WNW 32 63 17 34 1003.6 1003.6 0.0
01/10:46am 8.2 1.3 2.4 67 2.4 NW 28 52 15 28 1003.1 - 0.0
01/10:30am 8.2 1.7 2.7 68 2.3 NW 26 41 14 22 1002.9 - 0.0
01/10:00am 8.0 0.7 2.3 67 2.4 NW 30 50 16 27 1002.6 1002.6 0.0
01/09:44am 8.1 1.2 2.4 67 2.4 NW 28 48 15 26 1002.7 - 0.0
01/09:30am 7.8 1.7 2.5 69 2.2 NW 24 41 13 22 1002.8 - 0.0
01/09:00am 7.5 0.6 2.4 70 2.1 NW 28 48 15 26 1002.6 1002.6 6.0
01/08:31am 7.3 0.3 2.0 69 2.2 NNW 28 46 15 25 1001.7 - 6.0
01/08:30am 7.3 0.3 2.0 69 2.2 NNW 28 44 15 24 1001.6 - 6.0
01/08:00am 7.5 1.3 2.0 68 2.3 NNW 24 48 13 26 1001.4 1001.4 6.0
01/07:30am 6.9 1.0 1.8 70 2.1 NW 22 43 12 23 1001.3 - 6.0
01/07:00am 7.2 0.5 1.5 67 2.3 NW 26 41 14 22 1000.9 1000.9 6.0
01/06:48am 7.2 0.2 1.7 68 2.2 NW 28 48 15 26 1000.8 - 6.0
01/06:30am 7.2 0.9 1.5 67 2.3 NW 24 43 13 23 1000.3 - 6.0
01/06:00am 7.1 0.4 1.6 68 2.2 NW 26 43 14 23 999.9 999.9 6.0
01/05:47am 7.2 0.1 1.5 67 2.3 NW 28 56 15 30 999.6 - 6.0
01/05:30am 7.2 1.3 1.7 68 2.2 NNW 22 39 12 21 999.7 - 6.0
01/05:00am 7.2 0.2 1.9 69 2.2 NW 28 43 15 23 999.9 999.9 6.0
01/04:30am 7.5 -0.3 1.6 66 2.4 NW 32 57 17 31 1000.0 - 6.0
01/04:04am 7.5 0.5 2.0 68 2.3 NW 28 46 15 25 1000.1 - 6.0
01/04:00am 7.7 0.0 2.2 68 2.3 NW 32 46 17 25 1000.0 1000.0 6.0
01/03:30am 7.4 0.0 1.9 68 2.3 NW 30 44 16 24 1000.4 - 6.0
01/03:02am 7.7 0.0 2.2 68 2.3 NW 32 54 17 29 1000.5 - 6.0
01/03:00am 7.8 0.5 2.3 68 2.3 NW 30 44 16 24 1000.5 1000.5 6.0
01/02:30am 7.4 2.0 2.5 71 2.0 NW 20 32 11 17 1000.8 - 6.0
01/02:00am 7.3 1.1 2.2 70 2.1 NW 24 37 13 20 1000.4 1000.4 6.0
01/01:30am 7.3 0.3 2.0 69 2.2 NW 28 48 15 26 1000.1 - 6.0
01/01:25am 7.4 0.4 1.9 68 2.3 NW 28 48 15 26 1000.1 - 6.0
01/01:00am 7.5 1.3 2.0 68 2.3 WNW 24 35 13 19 1000.4 1000.4 6.0
01/12:30am 7.7 1.1 2.0 67 2.3 WNW 26 41 14 22 1000.3 - 6.0
01/12:10am 7.8 0.8 1.9 66 2.4 NW 28 48 15 26 1000.1 - 6.0
01/12:00am 7.9 0.9 2.0 66 2.5 WNW 28 43 15 23 1000.1 1000.1 6.0
 
Date/Time
EST
Tmp

°C
App
Tmp
°C
Dew
Point
°C
Rel
Hum
%
Delta-T

°C
Wind Press
QNH
hPa
Press
MSL
hPa
Rain
since
9 am
mm
Dir
 
Spd
km/h
Gust
km/h
Spd
kts
Gust
kts
31/11:35pm 8.1 0.7 2.1 66 2.5 WNW 30 50 16 27 1000.1 - 6.0
31/11:30pm 8.2 0.9 2.2 66 2.5 WNW 30 44 16 24 1000.2 - 6.0
31/11:00pm 8.4 1.5 2.4 66 2.5 WNW 28 46 15 25 1000.2 1000.2 6.0
31/10:31pm 8.6 1.7 2.4 65 2.6 WNW 28 50 15 27 1000.3 - 6.0
31/10:30pm 8.6 1.7 2.6 66 2.5 WNW 28 41 15 22 1000.3 - 6.0
31/10:00pm 8.4 2.7 3.1 69 2.3 WNW 22 37 12 20 1000.0 1000.0 6.0
31/09:30pm 8.2 2.1 2.9 69 2.2 WNW 24 37 13 20 999.7 - 6.0
31/09:00pm 8.6 1.1 3.2 69 2.3 WNW 32 52 17 28 999.2 999.2 6.0
31/08:30pm 9.1 2.4 3.5 68 2.4 WNW 28 46 15 25 999.5 - 6.0
31/08:29pm 9.1 2.4 3.5 68 2.4 WNW 28 46 15 25 999.5 - 6.0
31/08:00pm 8.8 2.5 3.8 71 2.2 WNW 26 50 14 27 999.2 999.2 6.0
31/07:53pm 8.8 2.2 4.0 72 2.1 NW 28 50 15 27 999.0 - 6.0
31/07:30pm 8.9 1.9 4.1 72 2.1 WNW 30 46 16 25 998.5 - 5.8
31/07:00pm 8.2 2.9 5.1 81 1.4 NW 22 41 12 22 998.7 998.7 5.8
31/06:30pm 7.8 1.8 5.1 83 1.2 NW 26 39 14 21 998.2 - 5.8
31/06:00pm 7.4 1.7 5.0 85 1.1 WNW 24 35 13 19 998.1 998.1 5.8
31/05:30pm 7.2 0.4 4.9 85 1.0 WNW 30 44 16 24 998.0 - 5.4
31/05:00pm 7.6 1.2 5.2 85 1.1 W 28 43 15 23 998.0 998.0 4.6
31/04:30pm 7.9 1.2 5.4 84 1.1 W 30 54 16 29 997.4 - 4.0
31/04:07pm 8.1 1.8 5.7 85 1.1 W 28 46 15 25 997.1 - 3.2
31/04:00pm 8.2 3.4 5.8 85 1.1 W 20 41 11 22 997.3 997.3 2.8
31/03:30pm 8.4 1.2 5.9 84 1.1 W 33 48 18 26 996.3 - 2.0
31/03:04pm 9.6 2.6 7.0 84 1.2 W 33 57 18 31 995.5 - 1.6
31/03:00pm 10.0 3.7 7.6 85 1.2 W 30 46 16 25 995.5 995.5 1.4
31/02:30pm 10.8 5.7 7.7 81 1.5 W 24 39 13 21 994.3 - 0.4
31/02:16pm 13.7 4.5 6.3 61 3.5 WNW 44 65 24 35 993.4 - 0.0
31/02:00pm 16.8 9.6 5.7 48 5.4 NW 33 57 18 31 992.1 992.1 0.0
31/01:30pm 17.3 10.3 6.2 48 5.4 NNW 32 52 17 28 992.4 - 0.0
31/01:00pm 17.5 11.4 6.7 49 5.4 NNW 28 54 15 29 992.8 992.8 0.0
31/12:30pm 17.2 9.3 6.1 48 5.4 NNW 37 70 20 38 993.2 - 0.0
31/12:00pm 17.0 9.7 5.6 47 5.6 NNW 33 57 18 31 993.7 993.7 0.0
31/11:30am 16.7 9.1 5.9 49 5.2 NNW 35 57 19 31 995.2 - 0.0
31/11:00am 16.6 10.2 7.0 53 4.8 N 30 61 16 33 996.8 996.8 0.0
31/10:56am 16.5 10.5 6.9 53 4.7 NNW 28 50 15 27 996.7 - 0.0
31/10:30am 16.0 10.8 7.2 56 4.4 N 24 44 13 24 997.4 - 0.0
31/10:00am 15.8 10.7 7.8 59 4.0 N 24 39 13 21 998.3 998.3 0.0
31/09:33am 15.5 9.3 7.8 60 3.8 N 30 48 16 26 998.1 - 0.0
31/09:30am 15.5 8.9 7.8 60 3.8 N 32 48 17 26 998.2 - 0.0
31/09:00am 15.0 8.4 7.8 62 3.6 N 32 50 17 27 998.5 998.5 0.4
31/08:30am 14.6 7.8 7.6 63 3.5 NNW 33 56 18 30 998.8 - 0.4
31/08:00am 14.4 7.6 7.5 63 3.4 NNW 33 54 18 29 999.0 999.0 0.4
31/07:30am 14.2 6.5 7.3 63 3.4 NNW 37 65 20 35 999.0 - 0.4
31/07:00am 14.0 7.7 7.3 64 3.3 NNW 30 50 16 27 999.2 999.2 0.4
31/06:30am 14.1 7.8 7.4 64 3.3 N 30 50 16 27 999.6 - 0.4
31/06:28am 14.1 8.2 7.4 64 3.3 N 28 50 15 27 999.7 - 0.4
31/06:00am 14.1 8.8 6.9 62 3.5 N 24 43 13 23 1000.3 1000.3 0.4
31/05:30am 14.0 9.1 6.8 62 3.5 N 22 41 12 22 1000.9 - 0.4
31/05:00am 14.4 8.2 6.3 58 3.9 N 28 50 15 27 1001.4 1001.4 0.4
31/04:35am 14.7 7.7 6.0 56 4.2 NNW 32 52 17 28 1001.9 - 0.4
31/04:30am 14.6 8.4 6.2 57 4.0 NNW 28 44 15 24 1001.9 - 0.4
31/04:00am 14.7 8.2 6.5 58 4.0 NNW 30 52 16 28 1002.1 1002.1 0.4
31/03:30am 14.9 7.9 7.0 59 3.9 NNW 33 56 18 30 1002.4 - 0.4
31/03:03am 14.9 8.0 7.2 60 3.8 NNW 33 57 18 31 1002.5 - 0.4
31/03:00am 14.9 8.2 7.2 60 3.8 NNW 32 50 17 27 1002.7 1002.7 0.4
31/02:30am 15.2 8.7 6.7 57 4.1 NNW 30 56 16 30 1003.3 - 0.4
31/02:00am 15.1 9.2 7.6 61 3.7 NNW 28 48 15 26 1004.0 1004.1 0.4
31/01:49am 15.0 9.2 8.0 63 3.5 NNW 28 46 15 25 1004.4 - 0.4
31/01:30am 14.9 10.3 8.2 64 3.4 N 22 48 12 26 1004.6 - 0.4
31/01:00am 15.0 10.1 8.5 65 3.3 NNW 24 43 13 23 1005.3 1005.4 0.4
31/12:33am 15.2 9.5 8.2 63 3.5 NNW 28 48 15 26 1005.8 - 0.4
31/12:30am 15.2 9.5 8.2 63 3.5 NNW 28 44 15 24 1005.9 - 0.4
31/12:00am 15.4 9.7 8.4 63 3.6 NNW 28 50 15 27 1006.4 1006.5 0.4
 
Date/Time
EST
Tmp

°C
App
Tmp
°C
Dew
Point
°C
Rel
Hum
%
Delta-T

°C
Wind Press
QNH
hPa
Press
MSL
hPa
Rain
since
9 am
mm
Dir
 
Spd
km/h
Gust
km/h
Spd
kts
Gust
kts
30/11:34pm 15.5 9.7 7.8 60 3.8 NNW 28 50 15 27 1006.5 - 0.4
30/11:30pm 15.4 9.9 7.7 60 3.8 NNW 26 46 14 25 1006.7 - 0.4
30/11:00pm 15.6 9.7 7.4 58 4.1 NNW 28 46 15 25 1006.6 1006.7 0.4
30/10:34pm 15.7 9.7 7.2 57 4.2 NNW 28 50 15 27 1006.5 - 0.4
30/10:30pm 15.8 10.2 7.3 57 4.2 NNW 26 50 14 27 1006.4 - 0.4
30/10:04pm 15.7 9.8 7.5 58 4.1 NNW 28 56 15 30 1007.2 - 0.4
30/10:00pm 15.7 10.2 7.5 58 4.1 NNW 26 56 14 30 1007.2 1007.3 0.4
30/09:30pm 15.4 10.7 7.7 60 3.8 NNW 22 37 12 20 1007.6 - 0.4
30/09:00pm 15.2 10.2 8.2 63 3.5 NW 24 41 13 22 1007.9 1008.0 0.4
30/08:30pm 15.5 9.9 8.7 64 3.5 NW 28 50 15 27 1007.7 - 0.4
30/08:25pm 15.5 9.5 8.7 64 3.5 NW 30 50 16 27 1007.5 - 0.4
30/08:00pm 15.4 10.6 8.9 65 3.3 NNW 24 46 13 25 1007.5 1007.6 0.4
30/07:30pm 15.5 10.4 9.2 66 3.2 NNW 26 41 14 22 1007.4 - 0.4
30/07:00pm 15.1 11.3 9.2 68 3.0 NNW 19 30 10 16 1008.0 1008.1 0.4
30/06:30pm 15.1 11.2 9.5 69 2.9 NNW 20 39 11 21 1007.9 - 0.4
30/06:00pm 14.9 11.5 9.3 69 2.9 NNW 17 32 9 17 1007.8 1007.9 0.4
30/05:30pm 15.2 10.9 9.3 68 3.0 NNW 22 37 12 20 1007.6 - 0.4
30/05:00pm 15.4 12.0 10.4 72 2.6 NNW 19 35 10 19 1007.7 1007.8 0.4
30/04:30pm 15.2 11.7 11.0 76 2.2 NW 20 33 11 18 1007.9 - 0.4
30/04:00pm 14.3 11.0 11.5 83 1.5 NW 20 32 11 17 1008.2 1008.3 0.4
30/03:30pm 14.9 11.5 11.1 78 2.0 NW 20 39 11 21 1008.2 - 0.2
30/03:00pm 16.0 14.0 11.6 75 2.4 NW 13 22 7 12 1008.2 1008.3 0.2
30/02:30pm 15.9 14.2 12.5 80 1.9 NW 13 24 7 13 1008.1 - 0.2
30/02:00pm 14.3 10.4 10.7 79 1.9 WNW 22 41 12 22 1008.8 1008.9 0.0
30/01:30pm 16.3 12.8 10.2 67 3.2 NW 19 32 10 17 1008.7 - 0.0
30/01:00pm 15.9 13.2 10.4 70 2.9 NW 15 26 8 14 1009.4 1009.5 0.0
30/12:30pm 15.9 11.0 9.8 67 3.2 NW 26 48 14 26 1009.7 - 0.0
30/12:26pm 15.9 10.5 9.6 66 3.3 NW 28 48 15 26 1009.6 - 0.0

Latest Capital City Observations: Canberra | Sydney | Melbourne | Brisbane | Adelaide | Perth | Hobart | Darwin

Other Formats:

Comma delimited format used in spreadsheet applications
http://www.bom.gov.au/fwo/IDV60901/IDV60901.94898.axf

JavaScript Object Notation format (JSON) in row-major order
http://www.bom.gov.au/fwo/IDV60901/IDV60901.94898.json